Time;durP1;ratioP1;P1;durP2;ratioP2;P2;SDS_P1;SDS_P2;PMS_P1;PMS_P2;Temp;Humidity;BMP_temperature;BMP_pressure;BME280_temperature;BME280_humidity;BME280_pressure;Samples;Min_cycle;Max_cycle;Signal;HPM_P1;HPM_P2
2022/09/06 00:02:13;;;;;;;7.28;6.25;;;;;;;17.34;100.00;101516.94;5202487;28;20571;-64
2022/09/06 00:04:44;;;;;;;8.43;6.90;;;;;;;17.32;100.00;101521.91;5202916;28;20029;-65
2022/09/06 00:07:14;;;;;;;6.35;5.78;;;;;;;17.34;100.00;101527.06;5202896;28;20052;-65
2022/09/06 00:09:44;;;;;;;5.10;4.80;;;;;;;17.37;100.00;101516.38;5203479;28;20496;-66
2022/09/06 00:12:15;;;;;;;12.43;6.15;;;;;;;17.44;100.00;101497.75;5202796;28;20057;-65
2022/09/06 00:14:45;;;;;;;5.22;4.90;;;;;;;17.46;100.00;101473.72;5201243;28;20048;-65
2022/09/06 00:17:16;;;;;;;5.60;5.20;;;;;;;17.42;100.00;101447.25;5199218;28;20026;-65
2022/09/06 00:19:46;;;;;;;6.25;5.75;;;;;;;17.49;100.00;101437.66;5202081;28;20072;-65
2022/09/06 00:22:16;;;;;;;5.07;4.72;;;;;;;17.41;100.00;101399.22;5203031;28;20021;-67
2022/09/06 00:24:47;;;;;;;3.60;3.40;;;;;;;17.49;100.00;101407.59;5202376;28;20029;-68
2022/09/06 00:27:17;;;;;;;3.42;3.33;;;;;;;17.47;100.00;101426.19;5186422;28;20037;-66
2022/09/06 00:29:47;;;;;;;5.40;4.40;;;;;;;17.52;100.00;101439.81;5204965;28;20029;-68
2022/09/06 00:32:18;;;;;;;4.93;4.65;;;;;;;17.58;100.00;101435.09;5204941;28;20022;-67
2022/09/06 00:34:48;;;;;;;5.07;4.47;;;;;;;17.44;100.00;101391.28;5204908;28;20048;-67
2022/09/06 00:37:19;;;;;;;5.22;4.72;;;;;;;17.57;100.00;101408.09;5204982;28;20035;-67
2022/09/06 00:39:49;;;;;;;5.65;5.22;;;;;;;17.52;100.00;101417.97;5205269;28;20034;-67
2022/09/06 00:42:19;;;;;;;5.68;5.32;;;;;;;17.49;100.00;101437.66;5205360;28;20057;-66
2022/09/06 00:44:50;;;;;;;5.15;4.85;;;;;;;17.26;100.00;101432.97;5205247;28;20402;-67
2022/09/06 00:47:20;;;;;;;5.97;5.63;;;;;;;17.36;100.00;101445.69;5205517;28;20021;-67
2022/09/06 00:49:53;;;;;;;5.93;5.43;;;;;;;17.33;100.00;101414.31;5204952;28;20029;-67
2022/09/06 00:52:26;;;;;;;4.75;4.38;;;;;;;17.40;100.00;101408.50;5205384;28;20029;-67
2022/09/06 00:54:57;;;;;;;5.88;5.47;;;;;;;17.48;100.00;101418.81;5206007;28;20051;-66
2022/09/06 00:57:30;;;;;;;5.07;4.70;;;;;;;17.52;100.00;101437.06;5189237;28;20450;-66
2022/09/06 01:00:03;;;;;;;5.32;5.03;;;;;;;17.57;100.00;101436.22;5188935;28;20029;-67
2022/09/06 01:02:34;;;;;;;5.18;4.32;;;;;;;17.45;100.00;101406.56;5188717;28;20051;-65
2022/09/06 01:05:05;;;;;;;7.28;4.80;;;;;;;17.58;100.00;101431.56;5206786;28;20104;-67
2022/09/06 01:07:58;;;;;;;5.32;5.03;;;;;;;17.57;100.00;101419.81;5207193;28;20033;-67
2022/09/06 01:10:47;;;;;;;6.80;5.63;;;;;;;17.62;100.00;101422.47;5170571;28;20034;-67
2022/09/06 01:13:33;;;;;;;4.35;4.15;;;;;;;17.62;100.00;101418.94;5207725;28;20126;-67
2022/09/06 01:16:17;;;;;;;4.40;4.00;;;;;;;17.61;100.00;101433.72;5207627;28;20030;-66
2022/09/06 01:18:53;;;;;;;6.30;5.88;;;;;;;17.54;100.00;101418.47;5206232;28;20048;-67
2022/09/06 01:21:31;;;;;;;5.57;5.22;;;;;;;17.40;100.00;101397.59;5190653;28;20048;-66
2022/09/06 01:24:19;;;;;;;5.28;4.97;;;;;;;17.46;100.00;101413.66;5207597;28;20025;-65
2022/09/06 01:27:05;;;;;;;4.97;4.68;;;;;;;17.48;100.00;101419.63;5209317;28;20029;-67
2022/09/06 01:30:05;;;;;;;5.88;5.47;;;;;;;17.48;100.00;101416.09;5211479;28;20029;-67
2022/09/06 01:32:38;;;;;;;5.30;4.95;;;;;;;17.43;100.00;101416.13;5212248;28;20026;-65
2022/09/06 01:35:14;;;;;;;7.60;7.00;;;;;;;17.40;100.00;101413.97;5211597;28;20072;-66
2022/09/06 01:37:45;;;;;;;5.30;4.90;;;;;;;17.38;100.00;101405.25;5211351;28;20030;-67
2022/09/06 01:40:15;;;;;;;3.92;3.75;;;;;;;17.37;100.00;101409.91;5192474;28;20025;-67
2022/09/06 01:42:48;;;;;;;5.38;4.93;;;;;;;17.28;100.00;101400.72;5210627;28;20450;-66
2022/09/06 01:45:26;;;;;;;6.07;4.13;;;;;;;17.29;100.00;101409.72;5209797;28;20037;-67
2022/09/06 01:48:06;;;;;;;6.25;5.65;;;;;;;17.25;100.00;101406.75;5192104;28;20029;-67
2022/09/06 01:50:39;;;;;;;6.85;5.22;;;;;;;17.18;100.00;101404.34;5209914;28;20029;-67
2022/09/06 01:53:24;;;;;;;5.00;4.60;;;;;;;17.14;100.00;101405.22;5191755;28;20060;-66
2022/09/06 01:56:00;;;;;;;6.25;5.95;;;;;;;17.05;100.00;101399.56;5209250;28;20029;-66
2022/09/06 01:58:39;;;;;;;5.95;5.45;;;;;;;17.01;100.00;101398.50;5190706;28;20021;-67
2022/09/06 02:01:34;;;;;;;4.68;4.38;;;;;;;16.88;100.00;101408.16;5208457;28;20029;-66
2022/09/06 02:04:21;;;;;;;5.20;4.70;;;;;;;16.84;100.00;101412.53;5208682;28;20026;-68
2022/09/06 02:07:02;;;;;;;6.05;5.57;;;;;;;16.81;100.00;101402.19;5208187;28;20056;-66
2022/09/06 02:09:39;;;;;;;4.75;4.53;;;;;;;16.80;100.00;101411.47;5207597;28;20029;-66
2022/09/06 02:12:12;;;;;;;4.80;4.50;;;;;;;16.70;100.00;101410.75;5189242;28;20120;-67
2022/09/06 02:14:52;;;;;;;5.15;4.85;;;;;;;16.72;100.00;101441.28;5206561;28;20331;-66
2022/09/06 02:17:27;;;;;;;6.10;5.68;;;;;;;16.72;100.00;101442.09;5207020;28;20040;-66
2022/09/06 02:20:08;;;;;;;6.43;5.70;;;;;;;16.66;100.00;101443.22;5206602;28;20176;-66
2022/09/06 02:22:42;;;;;;;4.65;4.35;;;;;;;16.61;100.00;101445.97;5207476;28;20041;-66
2022/09/06 02:25:22;;;;;;;5.68;5.22;;;;;;;16.57;100.00;101452.25;5207110;28;20025;-66
2022/09/06 02:27:54;;;;;;;6.72;6.13;;;;;;;16.59;100.00;101448.16;5207495;28;20037;-69
2022/09/06 02:30:24;;;;;;;6.18;5.78;;;;;;;16.57;100.00;101450.34;5207522;28;20032;-66
2022/09/06 02:33:00;;;;;;;7.18;6.70;;;;;;;16.59;100.00;101458.25;5189503;28;20339;-66
2022/09/06 02:35:31;;;;;;;8.25;7.57;;;;;;;16.55;100.00;101461.53;5206945;28;20033;-66
2022/09/06 02:38:01;;;;;;;8.88;7.97;;;;;;;16.52;100.00;101447.63;5188250;28;20393;-66
2022/09/06 02:40:32;;;;;;;8.18;7.47;;;;;;;16.49;100.00;101454.47;5205683;28;20036;-66
2022/09/06 02:43:02;;;;;;;8.38;7.68;;;;;;;16.46;100.00;101456.94;5205931;28;20029;-67
2022/09/06 02:45:33;;;;;;;8.95;8.27;;;;;;;16.43;100.00;101449.34;5206578;28;20052;-67
2022/09/06 02:48:03;;;;;;;7.93;7.22;;;;;;;16.40;100.00;101460.81;5188317;28;20069;-67
2022/09/06 02:50:33;;;;;;;8.57;7.85;;;;;;;16.35;100.00;101458.09;5206131;28;20021;-67
2022/09/06 02:53:09;;;;;;;8.18;7.68;;;;;;;16.35;100.00;101453.47;5206180;28;20025;-67
2022/09/06 02:55:40;;;;;;;10.05;7.75;;;;;;;16.35;100.00;101458.09;5205475;28;20053;-67
2022/09/06 02:58:12;;;;;;;9.15;8.55;;;;;;;15.98;100.00;101396.66;5188114;28;20139;-67
2022/09/06 03:00:42;;;;;;;10.18;9.38;;;;;;;16.31;100.00;101454.28;5206031;28;20084;-67
2022/09/06 03:03:13;;;;;;;7.60;7.10;;;;;;;16.27;100.00;101447.78;5206072;28;20091;-67
2022/09/06 03:05:52;;;;;;;17.23;10.20;;;;;;;16.11;100.00;101428.78;5187711;28;20033;-67
2022/09/06 03:08:25;;;;;;;6.95;6.55;;;;;;;16.22;100.00;101448.59;5205373;28;20113;-65
2022/09/06 03:10:55;;;;;;;7.88;7.38;;;;;;;16.07;100.00;101429.59;5205302;28;20055;-65
2022/09/06 03:13:26;;;;;;;7.57;7.07;;;;;;;16.11;100.00;101453.28;5187747;28;20167;-66
2022/09/06 03:15:58;;;;;;;8.35;7.75;;;;;;;16.17;100.00;101449.44;5205327;28;20132;-68
2022/09/06 03:18:30;;;;;;;8.68;7.97;;;;;;;16.16;100.00;101452.47;5205226;28;20087;-67
2022/09/06 03:21:00;;;;;;;8.80;8.10;;;;;;;16.07;100.00;101445.97;5205299;28;20029;-66
2022/09/06 03:23:31;;;;;;;8.60;8.00;;;;;;;16.09;100.00;101443.78;5205173;28;20083;-67
2022/09/06 03:26:01;;;;;;;8.40;7.63;;;;;;;16.05;100.00;101448.13;5205258;28;20074;-67
2022/09/06 03:28:32;;;;;;;9.05;8.25;;;;;;;15.85;100.00;101427.25;5204788;28;20029;-67
2022/09/06 03:31:03;;;;;;;7.25;6.85;;;;;;;15.89;100.00;101450.09;5204751;28;20036;-67
2022/09/06 03:33:33;;;;;;;9.27;8.68;;;;;;;15.89;100.00;101455.53;5205238;28;20017;-67
2022/09/06 03:36:04;;;;;;;10.45;7.82;;;;;;;15.86;100.00;101456.13;5205272;28;20017;-67
2022/09/06 03:38:34;;;;;;;8.02;7.43;;;;;;;15.70;100.00;101438.97;5205156;28;20032;-67
2022/09/06 03:41:05;;;;;;;7.60;6.63;;;;;;;15.80;100.00;101465.38;5204728;28;20036;-67
2022/09/06 03:43:35;;;;;;;7.97;7.28;;;;;;;-141.48;100.00;69781.59;5205035;28;20104;-67
2022/09/06 03:46:05;;;;;;;8.27;7.70;;;;;;;-141.48;100.00;69781.59;5205472;28;20071;-68
2022/09/06 03:48:36;;;;;;;7.63;7.13;;;;;;;-141.48;100.00;69781.59;5205176;28;20041;-66
2022/09/06 03:51:06;;;;;;;9.15;7.40;;;;;;;-141.48;100.00;69781.59;5187132;28;20029;-66
2022/09/06 03:53:37;;;;;;;8.80;8.30;;;;;;;-141.48;100.00;69781.59;5186725;28;20068;-66
2022/09/06 03:56:07;;;;;;;9.98;9.18;;;;;;;-141.48;100.00;69781.59;5204767;28;20437;-66
2022/09/06 03:58:37;;;;;;;8.35;7.57;;;;;;;-141.48;100.00;69781.59;5187208;28;20032;-66
2022/09/06 04:01:10;;;;;;;7.57;7.07;;;;;;;-141.48;100.00;69781.59;5204683;28;20029;-66
2022/09/06 04:03:40;;;;;;;7.50;7.10;;;;;;;-141.48;100.00;69781.59;5186463;28;20025;-66
2022/09/06 04:06:11;;;;;;;9.10;8.40;;;;;;;-141.48;100.00;69781.59;5187023;28;20488;-67
2022/09/06 04:08:41;;;;;;;7.97;7.47;;;;;;;-141.48;100.00;69781.59;5204745;28;20041;-66
2022/09/06 04:11:11;;;;;;;10.13;9.43;;;;;;;-141.48;100.00;69781.59;5187903;28;20021;-66
2022/09/06 04:13:42;;;;;;;9.90;9.10;;;;;;;-141.48;100.00;69781.59;5205837;28;20032;-67
2022/09/06 04:16:12;;;;;;;8.70;7.93;;;;;;;-141.48;100.00;69781.59;5204893;28;20068;-66
2022/09/06 04:18:43;;;;;;;8.52;7.93;;;;;;;-141.48;100.00;69781.59;5206124;28;20042;-66
2022/09/06 04:21:13;;;;;;;8.80;8.05;;;;;;;-141.48;100.00;69781.59;5206575;28;20056;-66
2022/09/06 04:23:44;;;;;;;9.00;8.23;;;;;;;-141.48;100.00;69781.59;5206188;28;20026;-69
2022/09/06 04:26:14;;;;;;;8.95;8.25;;;;;;;-141.48;100.00;69781.59;5189574;28;20036;-66
2022/09/06 04:28:45;;;;;;;9.15;8.45;;;;;;;-141.48;100.00;69781.59;5189365;28;20018;-66
2022/09/06 04:31:15;;;;;;;8.43;7.72;;;;;;;-141.48;100.00;69781.59;5206877;28;20469;-65
2022/09/06 04:33:46;;;;;;;8.57;8.02;;;;;;;-141.48;100.00;69781.59;5188581;28;20105;-66
2022/09/06 04:36:16;;;;;;;9.50;8.85;;;;;;;-141.48;100.00;69781.59;5206847;28;20056;-67
2022/09/06 04:38:46;;;;;;;10.50;9.80;;;;;;;-141.48;100.00;69781.59;5189804;28;20026;-67
2022/09/06 04:41:17;;;;;;;8.50;7.90;;;;;;;-141.48;100.00;69781.59;5213318;28;20029;-66
2022/09/06 04:43:48;;;;;;;11.15;9.43;;;;;;;-141.48;100.00;69781.59;5205714;28;20021;-67
2022/09/06 04:46:24;;;;;;;9.43;8.82;;;;;;;-141.48;100.00;69781.59;5219401;28;20025;-66
2022/09/06 04:48:56;;;;;;;9.73;8.85;;;;;;;-141.48;100.00;69781.59;5224655;28;20035;-65
2022/09/06 04:51:26;;;;;;;9.68;8.98;;;;;;;-141.48;100.00;69781.59;5224770;28;20503;-65
2022/09/06 04:53:57;;;;;;;10.10;9.40;;;;;;;-141.48;100.00;69781.59;5224794;28;20124;-66
2022/09/06 04:56:27;;;;;;;10.45;9.45;;;;;;;-141.48;100.00;69781.59;5225030;28;20468;-66
2022/09/06 04:58:58;;;;;;;8.35;7.82;;;;;;;-141.48;100.00;69781.59;5225054;28;20430;-66
2022/09/06 05:01:28;;;;;;;9.88;8.68;;;;;;;-141.48;100.00;69781.59;5207269;28;20017;-66
2022/09/06 05:03:58;;;;;;;10.23;9.32;;;;;;;-141.48;100.00;69781.59;5206240;28;20338;-67
2022/09/06 05:06:29;;;;;;;10.70;9.88;;;;;;;-141.48;100.00;69781.59;5219220;28;20067;-66
2022/09/06 05:08:59;;;;;;;10.75;9.93;;;;;;;-141.48;100.00;69781.59;5225181;28;20025;-68
2022/09/06 05:11:30;;;;;;;13.93;10.95;;;;;;;-141.48;100.00;69781.59;5225542;28;20033;-66
2022/09/06 05:14:00;;;;;;;11.70;9.63;;;;;;;-141.48;100.00;69781.59;5206133;28;20116;-66
2022/09/06 05:16:31;;;;;;;11.73;10.38;;;;;;;-141.48;100.00;69781.59;5224536;28;20017;-66
2022/09/06 05:19:01;;;;;;;10.25;9.45;;;;;;;-141.48;100.00;69781.59;5224560;28;20021;-67
2022/09/06 05:21:31;;;;;;;10.55;9.75;;;;;;;-141.48;100.00;69781.59;5224470;28;20124;-67
2022/09/06 05:24:02;;;;;;;11.65;10.70;;;;;;;-141.48;100.00;69781.59;5224549;28;20033;-66
2022/09/06 05:26:32;;;;;;;11.50;10.55;;;;;;;-141.48;100.00;69781.59;5224825;28;20020;-66
2022/09/06 05:29:02;;;;;;;13.00;11.85;;;;;;;-141.48;100.00;69781.59;5220955;28;20063;-66
2022/09/06 05:31:34;;;;;;;10.93;10.05;;;;;;;-141.48;100.00;69781.59;5205766;28;20029;-66
2022/09/06 05:34:04;;;;;;;11.77;10.82;;;;;;;-141.48;100.00;69781.59;5184448;28;20444;-66
2022/09/06 05:36:37;;;;;;;13.27;11.10;;;;;;;-141.48;100.00;69781.59;5203707;28;20021;-68
2022/09/06 05:39:07;;;;;;;12.63;10.75;;;;;;;-141.48;100.00;69781.59;5204269;28;20119;-66
2022/09/06 05:41:38;;;;;;;11.32;10.48;;;;;;;-141.48;100.00;69781.59;5202645;28;20037;-66
2022/09/06 05:44:08;;;;;;;11.60;10.60;;;;;;;-141.48;100.00;69781.59;5202733;28;20239;-66
2022/09/06 05:46:44;;;;;;;11.98;11.23;;;;;;;-141.48;100.00;69781.59;5202195;28;20029;-66
2022/09/06 05:49:14;;;;;;;11.15;10.13;;;;;;;-141.48;100.00;69781.59;5202928;28;20029;-67
2022/09/06 05:51:50;;;;;;;12.85;11.55;;;;;;;-141.48;100.00;69781.59;5183534;28;20453;-66
2022/09/06 05:54:20;;;;;;;11.40;10.63;;;;;;;-141.48;100.00;69781.59;5202741;28;20026;-67
2022/09/06 05:56:51;;;;;;;13.38;11.43;;;;;;;-141.48;100.00;69781.59;5226306;22;20193;-68
2022/09/06 05:59:21;;;;;;;17.45;11.20;;;;;;;-141.48;100.00;69781.59;5244034;28;20392;-64
2022/09/06 06:01:53;;;;;;;10.93;10.15;;;;;;;-141.48;100.00;69781.59;5244972;28;20081;-63
2022/09/06 06:04:23;;;;;;;14.77;13.60;;;;;;;-141.48;100.00;69781.59;5244208;28;20024;-64
2022/09/06 06:06:53;;;;;;;12.23;10.95;;;;;;;-141.48;100.00;69781.59;5243326;28;20134;-65
2022/09/06 06:09:24;;;;;;;10.32;9.52;;;;;;;-141.48;100.00;69781.59;5244233;28;20476;-65
2022/09/06 06:11:54;;;;;;;11.23;10.35;;;;;;;-141.48;100.00;69781.59;5244344;28;20017;-65
2022/09/06 06:14:24;;;;;;;11.60;10.57;;;;;;;-141.48;100.00;69781.59;5245532;28;20013;-64
2022/09/06 06:16:55;;;;;;;12.48;11.57;;;;;;;-141.48;100.00;69781.59;5248007;28;20036;-64
2022/09/06 06:19:25;;;;;;;12.35;11.55;;;;;;;-141.48;100.00;69781.59;5248364;28;20017;-64
2022/09/06 06:21:57;;;;;;;13.43;12.27;;;;;;;-141.48;100.00;69781.59;5247844;28;20503;-65
2022/09/06 06:24:27;;;;;;;13.75;12.25;;;;;;;-141.48;100.00;69781.59;5246102;28;20054;-64
2022/09/06 06:26:58;;;;;;;14.48;13.18;;;;;;;-141.48;100.00;69781.59;5247928;28;20497;-66
2022/09/06 06:29:28;;;;;;;17.35;12.93;;;;;;;-141.48;100.00;69781.59;5244686;28;20204;-65
2022/09/06 06:31:58;;;;;;;13.00;12.10;;;;;;;-141.48;100.00;69781.59;5225862;28;20078;-64
2022/09/06 06:34:29;;;;;;;10.85;9.95;;;;;;;-141.48;100.00;69781.59;5227033;28;20049;-64
2022/09/06 06:37:00;;;;;;;11.43;10.70;;;;;;;-141.48;100.00;69781.59;5226676;28;20031;-64
2022/09/06 06:39:30;;;;;;;12.05;11.05;;;;;;;-141.48;100.00;69781.59;5226691;28;20079;-64
2022/09/06 06:42:00;;;;;;;10.13;9.02;;;;;;;-141.48;100.00;69781.59;5226229;28;20056;-64
2022/09/06 06:44:31;;;;;;;13.75;11.48;;;;;;;-141.48;100.00;69781.59;5226288;28;20033;-65
2022/09/06 06:47:01;;;;;;;10.82;10.10;;;;;;;-141.48;100.00;69781.59;5226456;28;20044;-64
2022/09/06 06:49:32;;;;;;;9.23;8.52;;;;;;;-141.48;100.00;69781.59;5226388;28;20086;-65
2022/09/06 06:52:02;;;;;;;11.45;10.38;;;;;;;-141.48;100.00;69781.59;5226043;28;20025;-64
2022/09/06 06:54:32;;;;;;;9.27;8.57;;;;;;;-141.48;100.00;69781.59;5225635;28;20033;-64
2022/09/06 06:57:03;;;;;;;10.20;9.20;;;;;;;-141.48;100.00;69781.59;5226013;28;20032;-65
2022/09/06 06:59:34;;;;;;;11.02;10.23;;;;;;;-141.48;100.00;69781.59;5224592;28;20082;-64
2022/09/06 07:02:05;;;;;;;9.00;8.15;;;;;;;-141.48;100.00;69781.59;5225919;28;20100;-64
2022/09/06 07:04:36;;;;;;;11.02;9.25;;;;;;;-141.48;100.00;69781.59;5225736;28;20029;-64
2022/09/06 07:07:06;;;;;;;8.90;8.13;;;;;;;-141.48;100.00;69781.59;5225408;28;20281;-64
2022/09/06 07:09:37;;;;;;;10.00;8.55;;;;;;;-141.48;100.00;69781.59;5225758;28;20035;-63
2022/09/06 07:12:07;;;;;;;12.00;8.45;;;;;;;-141.48;100.00;69781.59;5225678;28;20115;-65
2022/09/06 07:14:37;;;;;;;8.30;7.55;;;;;;;-141.48;100.00;69781.59;5225387;28;20027;-65
2022/09/06 07:17:08;;;;;;;10.38;9.57;;;;;;;-141.48;100.00;69781.59;5225628;28;20057;-65
2022/09/06 07:19:38;;;;;;;8.43;7.85;;;;;;;-141.48;100.00;69781.59;5225583;28;20424;-65
2022/09/06 07:22:09;;;;;;;8.38;7.72;;;;;;;-141.48;100.00;69781.59;5225582;28;20032;-66
2022/09/06 07:24:40;;;;;;;9.23;6.57;;;;;;;-141.48;100.00;69781.59;5224768;28;20021;-64
2022/09/06 07:27:10;;;;;;;6.97;6.53;;;;;;;-141.48;100.00;69781.59;5225394;28;20021;-65
2022/09/06 07:29:40;;;;;;;8.25;7.63;;;;;;;-141.48;100.00;69781.59;5223933;28;20025;-65
2022/09/06 07:32:11;;;;;;;7.50;6.97;;;;;;;-141.48;100.00;69781.59;5225003;28;20025;-65
2022/09/06 07:34:41;;;;;;;7.15;6.63;;;;;;;-141.48;100.00;69781.59;5224072;28;20033;-65
2022/09/06 07:37:11;;;;;;;7.35;6.80;;;;;;;-141.48;100.00;69781.59;5225336;28;20029;-65
2022/09/06 07:39:42;;;;;;;5.95;5.53;;;;;;;-141.48;100.00;69781.59;5225595;28;20029;-64
2022/09/06 07:42:12;;;;;;;7.97;6.55;;;;;;;-141.48;100.00;69781.59;5225012;28;20484;-65
2022/09/06 07:44:43;;;;;;;7.47;6.22;;;;;;;-141.48;100.00;69781.59;5224916;28;20398;-66
2022/09/06 07:47:14;;;;;;;5.97;5.57;;;;;;;-141.48;100.00;69781.59;5224891;28;20032;-67
2022/09/06 07:49:44;;;;;;;6.50;6.05;;;;;;;-141.48;100.00;69781.59;5223357;28;20032;-66
2022/09/06 07:52:15;;;;;;;5.97;5.53;;;;;;;-141.48;100.00;69781.59;5224567;28;20489;-66
2022/09/06 07:54:45;;;;;;;5.93;5.50;;;;;;;-141.48;100.00;69781.59;5223732;28;20024;-65
2022/09/06 07:57:15;;;;;;;5.75;5.35;;;;;;;-141.48;100.00;69781.59;5224727;28;20277;-66
2022/09/06 07:59:46;;;;;;;12.50;5.45;;;;;;;-141.48;100.00;69781.59;5224318;28;20032;-65
2022/09/06 08:02:16;;;;;;;12.13;6.75;;;;;;;-141.48;100.00;69781.59;5224410;28;20017;-64
2022/09/06 08:04:47;;;;;;;6.38;5.75;;;;;;;-141.48;100.00;69781.59;5224379;28;20473;-64
2022/09/06 08:07:17;;;;;;;5.90;5.40;;;;;;;-141.48;100.00;69781.59;5224238;28;20082;-64
2022/09/06 08:09:47;;;;;;;6.55;6.03;;;;;;;-141.48;100.00;69781.59;5222713;28;20024;-65
2022/09/06 08:12:18;;;;;;;5.57;5.07;;;;;;;-141.48;100.00;69781.59;5224414;28;20028;-65
2022/09/06 08:14:48;;;;;;;4.38;4.05;;;;;;;-141.48;100.00;69781.59;5224222;28;20025;-65
2022/09/06 08:17:19;;;;;;;4.65;4.35;;;;;;;-141.48;100.00;69781.59;5224345;28;20631;-65
2022/09/06 08:19:49;;;;;;;4.88;4.35;;;;;;;-141.48;100.00;69781.59;5222437;28;20043;-67
2022/09/06 08:22:19;;;;;;;7.10;4.60;;;;;;;-141.48;100.00;69781.59;5224263;28;20021;-67
2022/09/06 08:24:50;;;;;;;4.40;4.20;;;;;;;-141.48;100.00;69781.59;5223610;28;20024;-64
2022/09/06 08:27:20;;;;;;;6.43;4.20;;;;;;;-141.48;100.00;69781.59;5223203;28;20035;-64
2022/09/06 08:29:50;;;;;;;4.43;3.38;;;;;;;-141.48;100.00;69781.59;5224099;28;20100;-65
2022/09/06 08:32:21;;;;;;;5.28;4.63;;;;;;;-141.48;100.00;69781.59;5223962;28;20024;-64
2022/09/06 08:34:51;;;;;;;5.35;4.63;;;;;;;-141.48;100.00;69781.59;5224016;28;20029;-64
2022/09/06 08:37:21;;;;;;;4.22;3.67;;;;;;;-141.48;100.00;69781.59;5222184;28;20025;-65
2022/09/06 08:39:52;;;;;;;3.53;3.22;;;;;;;-141.48;100.00;69781.59;5223587;28;20071;-64
2022/09/06 08:42:22;;;;;;;4.90;4.32;;;;;;;-141.48;100.00;69781.59;5202082;28;20025;-64
2022/09/06 08:44:56;;;;;;;4.32;4.13;;;;;;;-141.48;100.00;69781.59;5202293;28;20477;-63
2022/09/06 08:47:27;;;;;;;5.85;4.93;;;;;;;-141.48;100.00;69781.59;5203786;28;20443;-63
2022/09/06 08:50:04;;;;;;;4.38;4.07;;;;;;;-141.48;100.00;69781.59;5203317;28;20029;-63
2022/09/06 08:52:53;;;;;;;3.92;3.72;;;;;;;-141.48;100.00;69781.59;5203230;28;20034;-63
2022/09/06 08:55:41;;;;;;;5.25;4.15;;;;;;;-141.48;100.00;69781.59;5202460;28;20083;-64
2022/09/06 08:58:44;;;;;;;3.47;3.27;;;;;;;-141.48;100.00;69781.59;5203799;28;20037;-65
2022/09/06 09:01:18;;;;;;;4.15;3.92;;;;;;;-141.48;100.00;69781.59;5219009;28;20026;-64
2022/09/06 09:03:51;;;;;;;3.53;3.33;;;;;;;-141.48;100.00;69781.59;5217383;28;20022;-64
2022/09/06 09:06:24;;;;;;;3.83;3.00;;;;;;;-141.48;100.00;69781.59;5203270;28;20094;-65
2022/09/06 09:08:58;;;;;;;3.63;3.38;;;;;;;-141.48;100.00;69781.59;5203324;28;20026;-65
2022/09/06 09:11:28;;;;;;;3.25;3.05;;;;;;;-141.48;100.00;69781.59;5203217;28;20036;-65
2022/09/06 09:14:14;;;;;;;9.20;4.43;;;;;;;-141.48;100.00;69781.59;5201976;28;20025;-64
2022/09/06 09:16:49;;;;;;;3.55;3.40;;;;;;;-141.48;100.00;69781.59;5203139;28;20032;-65
2022/09/06 09:19:20;;;;;;;6.80;5.82;;;;;;;-141.48;100.00;69781.59;5203057;28;20080;-64
2022/09/06 09:21:50;;;;;;;3.97;3.65;;;;;;;-141.48;100.00;69781.59;5202896;28;20465;-65
2022/09/06 09:24:20;;;;;;;3.78;3.55;;;;;;;-141.48;100.00;69781.59;5201862;28;20021;-65
2022/09/06 09:27:03;;;;;;;3.33;3.15;;;;;;;-141.48;100.00;69781.59;5202996;28;20029;-65
2022/09/06 09:29:53;;;;;;;8.02;3.67;;;;;;;-141.48;100.00;69781.59;5202900;28;20018;-65
2022/09/06 09:32:34;;;;;;;3.45;3.08;;;;;;;-141.48;100.00;69781.59;5202763;28;20426;-66
2022/09/06 09:35:32;;;;;;;4.78;4.45;;;;;;;-141.48;100.00;69781.59;5201735;28;20448;-64
2022/09/06 09:38:09;;;;;;;4.80;4.47;;;;;;;-141.48;100.00;69781.59;5197415;28;20498;-64
2022/09/06 09:40:48;;;;;;;8.23;4.50;;;;;;;-141.48;100.00;69781.59;5218084;28;20079;-64
2022/09/06 09:43:23;;;;;;;5.13;4.15;;;;;;;-141.48;100.00;69781.59;5202073;28;20029;-65
2022/09/06 09:46:11;;;;;;;4.18;3.80;;;;;;;-141.48;100.00;69781.59;5202415;28;20029;-64
2022/09/06 09:49:09;;;;;;;3.65;3.45;;;;;;;-141.48;100.00;69781.59;5205462;28;20037;-65
2022/09/06 09:51:45;;;;;;;4.68;4.28;;;;;;;-141.48;100.00;69781.59;5176436;28;20059;-65
2022/09/06 09:54:30;;;;;;;4.03;3.72;;;;;;;-141.48;100.00;69781.59;5206151;28;20393;-65
2022/09/06 09:57:00;;;;;;;3.55;2.92;;;;;;;-141.48;100.00;69781.59;5206561;28;20021;-64
2022/09/06 09:59:33;;;;;;;13.18;6.07;;;;;;;-141.48;100.00;69781.59;5205134;28;20021;-65
2022/09/06 10:02:34;;;;;;;4.55;4.03;;;;;;;-141.48;100.00;69781.59;5206052;28;20026;-65
2022/09/06 10:05:18;;;;;;;7.57;4.05;;;;;;;-141.48;100.00;69781.59;5220929;28;20202;-65
2022/09/06 10:07:52;;;;;;;4.35;4.15;;;;;;;-141.48;100.00;69781.59;5206392;28;20100;-65
2022/09/06 10:10:29;;;;;;;4.45;4.25;;;;;;;-141.48;100.00;69781.59;5205873;28;20029;-65
2022/09/06 10:13:18;;;;;;;5.55;5.03;;;;;;;-141.48;100.00;69781.59;5207018;28;20087;-65
2022/09/06 10:15:52;;;;;;;4.97;4.55;;;;;;;-141.48;100.00;69781.59;5206031;28;20029;-65
2022/09/06 10:18:38;;;;;;;5.05;4.60;;;;;;;-141.48;100.00;69781.59;5206010;28;20033;-65
2022/09/06 10:21:21;;;;;;;3.30;3.10;;;;;;;-141.48;100.00;69781.59;5221228;28;20433;-65
2022/09/06 10:24:14;;;;;;;5.53;4.10;;;;;;;-141.48;100.00;69781.59;5205669;28;20105;-65
2022/09/06 10:26:50;;;;;;;7.28;5.45;;;;;;;-141.48;100.00;69781.59;5203923;28;20068;-65
2022/09/06 10:29:43;;;;;;;7.68;4.90;;;;;;;-141.48;100.00;69781.59;5204203;28;20482;-65
2022/09/06 10:32:35;;;;;;;8.07;5.75;;;;;;;-141.48;100.00;69781.59;5221138;28;20017;-65
2022/09/06 10:35:31;;;;;;;4.65;4.30;;;;;;;-141.48;100.00;69781.59;5205221;28;20385;-65
2022/09/06 10:38:04;;;;;;;4.65;4.25;;;;;;;-141.48;100.00;69781.59;5205166;28;20060;-65
2022/09/06 10:41:03;;;;;;;6.32;4.95;;;;;;;-141.48;100.00;69781.59;5205366;28;20033;-65
2022/09/06 10:43:46;;;;;;;3.85;3.63;;;;;;;-141.48;100.00;69781.59;5203874;28;20026;-65
2022/09/06 10:46:20;;;;;;;4.43;4.22;;;;;;;-141.48;100.00;69781.59;5205665;28;20018;-65
2022/09/06 10:48:52;;;;;;;2.47;2.38;;;;;;;-141.48;100.00;69781.59;5205425;28;20022;-65
2022/09/06 10:51:48;;;;;;;2.10;1.95;;;;;;;-141.48;100.00;69781.59;5205303;28;20458;-64
2022/09/06 10:54:23;;;;;;;6.13;3.47;;;;;;;-141.48;100.00;69781.59;5204615;28;20454;-65
2022/09/06 10:57:07;;;;;;;3.63;3.33;;;;;;;-141.48;100.00;69781.59;5205330;28;20044;-65
2022/09/06 10:59:59;;;;;;;2.92;2.72;;;;;;;-141.48;100.00;69781.59;5204561;28;20017;-65
2022/09/06 11:02:54;;;;;;;3.33;3.13;;;;;;;-141.48;100.00;69781.59;5205327;28;20033;-65
2022/09/06 11:05:30;;;;;;;2.10;2.00;;;;;;;-141.48;100.00;69781.59;5204575;28;20021;-65
2022/09/06 11:08:14;;;;;;;3.40;2.60;;;;;;;-141.48;100.00;69781.59;5205041;28;20061;-65
2022/09/06 11:10:48;;;;;;;4.35;4.15;;;;;;;-141.48;100.00;69781.59;5204793;28;20022;-66
2022/09/06 11:13:22;;;;;;;3.92;3.65;;;;;;;-141.48;100.00;69781.59;5204601;28;20027;-65
2022/09/06 11:16:08;;;;;;;4.15;3.20;;;;;;;-141.48;100.00;69781.59;5205024;28;20036;-65
2022/09/06 11:18:44;;;;;;;3.58;3.28;;;;;;;-141.48;100.00;69781.59;5204862;28;20013;-65
2022/09/06 11:21:20;;;;;;;3.92;3.60;;;;;;;-141.48;100.00;69781.59;5204542;28;20033;-65
2022/09/06 11:23:57;;;;;;;6.18;4.43;;;;;;;-141.48;100.00;69781.59;5202430;28;20499;-65
2022/09/06 11:26:35;;;;;;;4.18;3.88;;;;;;;-141.48;100.00;69781.59;5205027;28;20391;-65
2022/09/06 11:29:23;;;;;;;3.60;3.30;;;;;;;-141.48;100.00;69781.59;5204693;28;20033;-66
2022/09/06 11:32:02;;;;;;;3.85;3.65;;;;;;;-141.48;100.00;69781.59;5204351;28;20017;-66
2022/09/06 11:34:34;;;;;;;4.07;3.70;;;;;;;-141.48;100.00;69781.59;5213308;28;20025;-65
2022/09/06 11:37:07;;;;;;;5.35;4.63;;;;;;;-141.48;100.00;69781.59;5224589;28;20181;-66
2022/09/06 11:39:41;;;;;;;5.47;4.97;;;;;;;-141.48;100.00;69781.59;5224725;28;20435;-66
2022/09/06 11:42:59;;;;;;;4.47;4.18;;;;;;;-141.48;100.00;69781.59;5224932;28;20514;-65